Terminal Aerodrome Forecast
Issued by NWS

Home | Current Version | Previous Version | Text Only | Print | Product List | Glossary On
Versions: 1 2 3 4 5 6 7 8 9 10 11 12 13
000
FTUS43 KFGF 251123
TAFTVF
TAF
KTVF 251123Z 2512/2612 14013G22KT P6SM FEW050 SCT200
     FM251600 18017G26KT P6SM BKN100
     FM260200 16012G20KT P6SM BKN080
     FM260700 17008KT P6SM SCT100=

USA.gov is the U.S. government's official web portal to all federal, state and local government web resources and services.